sensor_id;sensor_type;location;lat;lon;timestamp;P1;durP1;ratioP1;P2;durP2;ratioP2
55800;SDS011;41730;51.960;20.158;2023-05-20T00:01:00;22.20;;;15.10;;
55800;SDS011;41730;51.960;20.158;2023-05-20T00:03:29;21.20;;;14.00;;
55800;SDS011;41730;51.960;20.158;2023-05-20T00:05:58;23.60;;;15.00;;
55800;SDS011;41730;51.960;20.158;2023-05-20T00:08:27;19.50;;;14.60;;
55800;SDS011;41730;51.960;20.158;2023-05-20T00:10:56;21.90;;;15.50;;
55800;SDS011;41730;51.960;20.158;2023-05-20T00:13:25;17.90;;;13.00;;
55800;SDS011;41730;51.960;20.158;2023-05-20T00:15:54;18.40;;;13.70;;
55800;SDS011;41730;51.960;20.158;2023-05-20T00:18:23;18.40;;;13.20;;
55800;SDS011;41730;51.960;20.158;2023-05-20T00:20:52;19.10;;;13.20;;
55800;SDS011;41730;51.960;20.158;2023-05-20T00:23:21;17.30;;;13.00;;
55800;SDS011;41730;51.960;20.158;2023-05-20T00:25:49;18.10;;;12.80;;
55800;SDS011;41730;51.960;20.158;2023-05-20T00:28:18;17.80;;;12.50;;
55800;SDS011;41730;51.960;20.158;2023-05-20T00:30:49;19.70;;;13.70;;
55800;SDS011;41730;51.960;20.158;2023-05-20T00:33:18;18.50;;;13.70;;
55800;SDS011;41730;51.960;20.158;2023-05-20T00:35:47;21.50;;;13.90;;
55800;SDS011;41730;51.960;20.158;2023-05-20T00:38:16;19.10;;;13.30;;
55800;SDS011;41730;51.960;20.158;2023-05-20T00:40:44;17.10;;;13.10;;
55800;SDS011;41730;51.960;20.158;2023-05-20T00:43:13;21.00;;;14.00;;
55800;SDS011;41730;51.960;20.158;2023-05-20T00:45:43;24.10;;;14.20;;
55800;SDS011;41730;51.960;20.158;2023-05-20T00:48:12;21.50;;;13.80;;
55800;SDS011;41730;51.960;20.158;2023-05-20T00:50:41;16.30;;;12.60;;
55800;SDS011;41730;51.960;20.158;2023-05-20T00:53:10;20.00;;;13.80;;
55800;SDS011;41730;51.960;20.158;2023-05-20T00:55:40;20.70;;;14.10;;
55800;SDS011;41730;51.960;20.158;2023-05-20T00:58:08;19.30;;;15.00;;
55800;SDS011;41730;51.960;20.158;2023-05-20T01:00:38;21.20;;;14.00;;
55800;SDS011;41730;51.960;20.158;2023-05-20T01:03:08;20.90;;;13.70;;
55800;SDS011;41730;51.960;20.158;2023-05-20T01:05:37;19.40;;;13.90;;
55800;SDS011;41730;51.960;20.158;2023-05-20T01:08:08;18.70;;;13.20;;
55800;SDS011;41730;51.960;20.158;2023-05-20T01:10:40;17.50;;;13.60;;
55800;SDS011;41730;51.960;20.158;2023-05-20T01:13:14;19.90;;;13.50;;
55800;SDS011;41730;51.960;20.158;2023-05-20T01:15:46;18.60;;;13.80;;
55800;SDS011;41730;51.960;20.158;2023-05-20T01:18:17;16.30;;;11.90;;
55800;SDS011;41730;51.960;20.158;2023-05-20T01:20:48;20.40;;;13.50;;
55800;SDS011;41730;51.960;20.158;2023-05-20T01:23:20;19.10;;;12.50;;
55800;SDS011;41730;51.960;20.158;2023-05-20T01:25:49;18.90;;;13.80;;
55800;SDS011;41730;51.960;20.158;2023-05-20T01:28:18;22.00;;;14.30;;
55800;SDS011;41730;51.960;20.158;2023-05-20T01:30:47;18.60;;;14.40;;
55800;SDS011;41730;51.960;20.158;2023-05-20T01:33:23;20.10;;;12.90;;
55800;SDS011;41730;51.960;20.158;2023-05-20T01:35:55;20.00;;;14.20;;
55800;SDS011;41730;51.960;20.158;2023-05-20T01:38:25;22.50;;;14.30;;
55800;SDS011;41730;51.960;20.158;2023-05-20T01:40:55;18.50;;;13.00;;
55800;SDS011;41730;51.960;20.158;2023-05-20T01:43:26;21.10;;;15.70;;
55800;SDS011;41730;51.960;20.158;2023-05-20T01:45:55;19.10;;;13.50;;
55800;SDS011;41730;51.960;20.158;2023-05-20T01:48:24;25.20;;;15.00;;
55800;SDS011;41730;51.960;20.158;2023-05-20T01:50:53;21.00;;;14.20;;
55800;SDS011;41730;51.960;20.158;2023-05-20T01:53:22;21.30;;;13.90;;
55800;SDS011;41730;51.960;20.158;2023-05-20T01:55:51;20.60;;;13.90;;
55800;SDS011;41730;51.960;20.158;2023-05-20T01:58:20;20.60;;;14.30;;
55800;SDS011;41730;51.960;20.158;2023-05-20T02:00:49;16.20;;;13.10;;
55800;SDS011;41730;51.960;20.158;2023-05-20T02:03:18;19.10;;;14.60;;
55800;SDS011;41730;51.960;20.158;2023-05-20T02:05:47;22.80;;;14.90;;
55800;SDS011;41730;51.960;20.158;2023-05-20T02:08:16;22.70;;;14.80;;
55800;SDS011;41730;51.960;20.158;2023-05-20T02:10:47;22.30;;;14.90;;
55800;SDS011;41730;51.960;20.158;2023-05-20T02:13:16;22.40;;;14.30;;
55800;SDS011;41730;51.960;20.158;2023-05-20T02:15:44;17.80;;;13.60;;
55800;SDS011;41730;51.960;20.158;2023-05-20T02:18:13;21.40;;;15.80;;
55800;SDS011;41730;51.960;20.158;2023-05-20T02:20:44;19.30;;;14.50;;
55800;SDS011;41730;51.960;20.158;2023-05-20T02:23:13;27.20;;;16.60;;
55800;SDS011;41730;51.960;20.158;2023-05-20T02:25:43;24.80;;;14.60;;
55800;SDS011;41730;51.960;20.158;2023-05-20T02:28:12;20.10;;;14.70;;
55800;SDS011;41730;51.960;20.158;2023-05-20T02:30:47;21.00;;;14.60;;
55800;SDS011;41730;51.960;20.158;2023-05-20T02:33:17;19.20;;;15.20;;
55800;SDS011;41730;51.960;20.158;2023-05-20T02:35:46;21.30;;;14.60;;
55800;SDS011;41730;51.960;20.158;2023-05-20T02:38:15;24.50;;;15.70;;
55800;SDS011;41730;51.960;20.158;2023-05-20T02:40:44;23.80;;;15.80;;
55800;SDS011;41730;51.960;20.158;2023-05-20T02:43:13;23.50;;;15.90;;
55800;SDS011;41730;51.960;20.158;2023-05-20T02:45:42;20.40;;;14.50;;
55800;SDS011;41730;51.960;20.158;2023-05-20T02:48:13;18.40;;;14.50;;
55800;SDS011;41730;51.960;20.158;2023-05-20T02:50:42;22.90;;;15.90;;
55800;SDS011;41730;51.960;20.158;2023-05-20T02:53:11;22.00;;;15.50;;
55800;SDS011;41730;51.960;20.158;2023-05-20T02:55:41;18.80;;;13.30;;
55800;SDS011;41730;51.960;20.158;2023-05-20T02:58:13;22.80;;;14.60;;
55800;SDS011;41730;51.960;20.158;2023-05-20T03:00:43;22.00;;;14.70;;
55800;SDS011;41730;51.960;20.158;2023-05-20T03:03:11;21.40;;;15.30;;
55800;SDS011;41730;51.960;20.158;2023-05-20T03:05:40;21.10;;;15.30;;
55800;SDS011;41730;51.960;20.158;2023-05-20T03:08:11;23.70;;;16.00;;
55800;SDS011;41730;51.960;20.158;2023-05-20T03:10:40;23.20;;;16.30;;
55800;SDS011;41730;51.960;20.158;2023-05-20T03:13:09;22.80;;;16.60;;
55800;SDS011;41730;51.960;20.158;2023-05-20T03:15:38;22.30;;;15.40;;
55800;SDS011;41730;51.960;20.158;2023-05-20T03:18:08;25.70;;;16.60;;
55800;SDS011;41730;51.960;20.158;2023-05-20T03:20:38;24.40;;;16.20;;
55800;SDS011;41730;51.960;20.158;2023-05-20T03:23:08;22.70;;;16.70;;
55800;SDS011;41730;51.960;20.158;2023-05-20T03:25:38;23.10;;;16.30;;
55800;SDS011;41730;51.960;20.158;2023-05-20T03:28:09;21.50;;;16.40;;
55800;SDS011;41730;51.960;20.158;2023-05-20T03:30:43;25.80;;;16.40;;
55800;SDS011;41730;51.960;20.158;2023-05-20T03:33:19;21.40;;;15.00;;
55800;SDS011;41730;51.960;20.158;2023-05-20T03:35:51;23.10;;;16.10;;
55800;SDS011;41730;51.960;20.158;2023-05-20T03:38:21;25.20;;;16.90;;
55800;SDS011;41730;51.960;20.158;2023-05-20T03:40:50;21.70;;;14.20;;
55800;SDS011;41730;51.960;20.158;2023-05-20T03:43:19;22.00;;;15.20;;
55800;SDS011;41730;51.960;20.158;2023-05-20T03:45:48;24.00;;;15.90;;
55800;SDS011;41730;51.960;20.158;2023-05-20T03:48:17;22.40;;;16.10;;
55800;SDS011;41730;51.960;20.158;2023-05-20T03:50:47;21.30;;;14.90;;
55800;SDS011;41730;51.960;20.158;2023-05-20T03:53:17;25.80;;;16.20;;
55800;SDS011;41730;51.960;20.158;2023-05-20T03:55:47;23.60;;;16.10;;
55800;SDS011;41730;51.960;20.158;2023-05-20T03:58:16;22.40;;;15.50;;
55800;SDS011;41730;51.960;20.158;2023-05-20T04:00:48;21.70;;;16.10;;
55800;SDS011;41730;51.960;20.158;2023-05-20T04:03:17;24.50;;;15.40;;
55800;SDS011;41730;51.960;20.158;2023-05-20T04:05:48;24.40;;;14.70;;
55800;SDS011;41730;51.960;20.158;2023-05-20T04:08:18;25.90;;;16.20;;
55800;SDS011;41730;51.960;20.158;2023-05-20T04:10:53;24.50;;;16.40;;
55800;SDS011;41730;51.960;20.158;2023-05-20T04:13:24;26.90;;;16.90;;
55800;SDS011;41730;51.960;20.158;2023-05-20T04:15:53;21.90;;;14.20;;
55800;SDS011;41730;51.960;20.158;2023-05-20T04:18:22;25.80;;;16.40;;
55800;SDS011;41730;51.960;20.158;2023-05-20T04:20:53;26.20;;;16.30;;
55800;SDS011;41730;51.960;20.158;2023-05-20T04:23:23;25.30;;;16.40;;
55800;SDS011;41730;51.960;20.158;2023-05-20T04:25:51;24.20;;;17.20;;
55800;SDS011;41730;51.960;20.158;2023-05-20T04:28:22;19.90;;;15.60;;
55800;SDS011;41730;51.960;20.158;2023-05-20T04:30:57;22.10;;;16.30;;
55800;SDS011;41730;51.960;20.158;2023-05-20T04:33:26;21.00;;;15.80;;
55800;SDS011;41730;51.960;20.158;2023-05-20T04:35:56;22.80;;;15.30;;
55800;SDS011;41730;51.960;20.158;2023-05-20T04:38:26;20.00;;;13.30;;
55800;SDS011;41730;51.960;20.158;2023-05-20T04:40:56;16.00;;;12.50;;
55800;SDS011;41730;51.960;20.158;2023-05-20T04:43:25;20.60;;;12.90;;
55800;SDS011;41730;51.960;20.158;2023-05-20T04:45:56;19.10;;;12.50;;
55800;SDS011;41730;51.960;20.158;2023-05-20T04:48:27;16.50;;;11.50;;
55800;SDS011;41730;51.960;20.158;2023-05-20T04:50:56;16.10;;;11.40;;
55800;SDS011;41730;51.960;20.158;2023-05-20T04:53:25;16.90;;;11.40;;
55800;SDS011;41730;51.960;20.158;2023-05-20T04:55:54;16.40;;;11.10;;
55800;SDS011;41730;51.960;20.158;2023-05-20T04:58:24;15.50;;;10.60;;
55800;SDS011;41730;51.960;20.158;2023-05-20T05:00:55;18.10;;;11.50;;
55800;SDS011;41730;51.960;20.158;2023-05-20T05:03:24;13.60;;;10.50;;
55800;SDS011;41730;51.960;20.158;2023-05-20T05:05:55;17.40;;;10.60;;
55800;SDS011;41730;51.960;20.158;2023-05-20T05:08:25;16.30;;;10.30;;
55800;SDS011;41730;51.960;20.158;2023-05-20T05:10:54;12.10;;;8.90;;
55800;SDS011;41730;51.960;20.158;2023-05-20T05:13:23;14.90;;;9.80;;
55800;SDS011;41730;51.960;20.158;2023-05-20T05:15:57;14.00;;;9.80;;
55800;SDS011;41730;51.960;20.158;2023-05-20T05:18:27;16.20;;;10.50;;
55800;SDS011;41730;51.960;20.158;2023-05-20T05:20:59;14.40;;;10.10;;
55800;SDS011;41730;51.960;20.158;2023-05-20T05:23:29;14.70;;;9.50;;
55800;SDS011;41730;51.960;20.158;2023-05-20T05:25:59;14.60;;;9.30;;
55800;SDS011;41730;51.960;20.158;2023-05-20T05:28:28;18.40;;;10.20;;
55800;SDS011;41730;51.960;20.158;2023-05-20T05:30:57;14.10;;;10.70;;
55800;SDS011;41730;51.960;20.158;2023-05-20T05:33:28;14.10;;;9.30;;
55800;SDS011;41730;51.960;20.158;2023-05-20T05:35:58;16.10;;;8.70;;
55800;SDS011;41730;51.960;20.158;2023-05-20T05:38:28;11.20;;;7.70;;
55800;SDS011;41730;51.960;20.158;2023-05-20T05:40:57;13.60;;;8.90;;
55800;SDS011;41730;51.960;20.158;2023-05-20T05:43:26;12.30;;;9.20;;
55800;SDS011;41730;51.960;20.158;2023-05-20T05:45:55;12.80;;;8.80;;
55800;SDS011;41730;51.960;20.158;2023-05-20T05:48:24;13.90;;;8.90;;
55800;SDS011;41730;51.960;20.158;2023-05-20T05:50:53;10.90;;;8.40;;
55800;SDS011;41730;51.960;20.158;2023-05-20T05:53:23;17.20;;;9.60;;
55800;SDS011;41730;51.960;20.158;2023-05-20T05:55:52;13.70;;;8.50;;
55800;SDS011;41730;51.960;20.158;2023-05-20T05:58:21;13.20;;;7.80;;
55800;SDS011;41730;51.960;20.158;2023-05-20T06:00:51;13.60;;;8.30;;
55800;SDS011;41730;51.960;20.158;2023-05-20T06:03:20;10.80;;;7.50;;
55800;SDS011;41730;51.960;20.158;2023-05-20T06:05:50;11.40;;;7.40;;
55800;SDS011;41730;51.960;20.158;2023-05-20T06:08:19;11.50;;;7.40;;
55800;SDS011;41730;51.960;20.158;2023-05-20T06:10:48;12.70;;;7.90;;
55800;SDS011;41730;51.960;20.158;2023-05-20T06:13:18;11.60;;;7.40;;
55800;SDS011;41730;51.960;20.158;2023-05-20T06:15:48;14.20;;;8.50;;
55800;SDS011;41730;51.960;20.158;2023-05-20T06:18:17;10.70;;;7.60;;
55800;SDS011;41730;51.960;20.158;2023-05-20T06:20:52;10.90;;;7.80;;
55800;SDS011;41730;51.960;20.158;2023-05-20T06:23:23;12.60;;;7.60;;
55800;SDS011;41730;51.960;20.158;2023-05-20T06:25:56;9.20;;;6.50;;
55800;SDS011;41730;51.960;20.158;2023-05-20T06:28:25;10.50;;;7.00;;
55800;SDS011;41730;51.960;20.158;2023-05-20T06:30:54;11.80;;;6.10;;
55800;SDS011;41730;51.960;20.158;2023-05-20T06:33:24;11.00;;;7.00;;
55800;SDS011;41730;51.960;20.158;2023-05-20T06:35:55;12.00;;;7.40;;
55800;SDS011;41730;51.960;20.158;2023-05-20T06:38:28;9.10;;;5.90;;
55800;SDS011;41730;51.960;20.158;2023-05-20T06:40:57;9.20;;;6.10;;
55800;SDS011;41730;51.960;20.158;2023-05-20T06:43:26;10.40;;;6.30;;
55800;SDS011;41730;51.960;20.158;2023-05-20T06:45:54;9.00;;;5.80;;
55800;SDS011;41730;51.960;20.158;2023-05-20T06:48:24;9.10;;;6.00;;
55800;SDS011;41730;51.960;20.158;2023-05-20T06:50:54;8.50;;;5.60;;
55800;SDS011;41730;51.960;20.158;2023-05-20T06:53:23;9.20;;;5.50;;
55800;SDS011;41730;51.960;20.158;2023-05-20T06:55:52;12.50;;;5.40;;
55800;SDS011;41730;51.960;20.158;2023-05-20T06:58:22;11.20;;;6.00;;
55800;SDS011;41730;51.960;20.158;2023-05-20T07:00:51;8.60;;;6.00;;
55800;SDS011;41730;51.960;20.158;2023-05-20T07:03:20;8.20;;;5.20;;
55800;SDS011;41730;51.960;20.158;2023-05-20T07:05:50;10.00;;;5.60;;
55800;SDS011;41730;51.960;20.158;2023-05-20T07:08:19;13.00;;;5.80;;
55800;SDS011;41730;51.960;20.158;2023-05-20T07:10:48;9.80;;;5.80;;
55800;SDS011;41730;51.960;20.158;2023-05-20T07:13:17;9.10;;;5.50;;
55800;SDS011;41730;51.960;20.158;2023-05-20T07:15:49;9.00;;;5.40;;
55800;SDS011;41730;51.960;20.158;2023-05-20T07:18:20;8.80;;;5.10;;
55800;SDS011;41730;51.960;20.158;2023-05-20T07:20:49;6.60;;;4.30;;
55800;SDS011;41730;51.960;20.158;2023-05-20T07:23:18;9.00;;;4.80;;
55800;SDS011;41730;51.960;20.158;2023-05-20T07:25:47;9.70;;;5.00;;
55800;SDS011;41730;51.960;20.158;2023-05-20T07:28:19;7.00;;;4.50;;
55800;SDS011;41730;51.960;20.158;2023-05-20T07:30:48;8.60;;;4.50;;
55800;SDS011;41730;51.960;20.158;2023-05-20T07:33:19;10.30;;;5.30;;
55800;SDS011;41730;51.960;20.158;2023-05-20T07:35:49;8.80;;;5.40;;
55800;SDS011;41730;51.960;20.158;2023-05-20T07:38:20;8.80;;;4.60;;
55800;SDS011;41730;51.960;20.158;2023-05-20T07:40:49;7.20;;;5.10;;
55800;SDS011;41730;51.960;20.158;2023-05-20T07:43:19;8.80;;;4.60;;
55800;SDS011;41730;51.960;20.158;2023-05-20T07:45:48;6.50;;;4.40;;
55800;SDS011;41730;51.960;20.158;2023-05-20T07:48:17;9.70;;;4.80;;
55800;SDS011;41730;51.960;20.158;2023-05-20T07:50:46;7.60;;;4.80;;
55800;SDS011;41730;51.960;20.158;2023-05-20T07:53:16;12.50;;;5.60;;
55800;SDS011;41730;51.960;20.158;2023-05-20T07:55:45;6.60;;;4.60;;
55800;SDS011;41730;51.960;20.158;2023-05-20T07:58:14;9.30;;;4.60;;
55800;SDS011;41730;51.960;20.158;2023-05-20T08:00:43;8.20;;;4.10;;
55800;SDS011;41730;51.960;20.158;2023-05-20T08:03:12;7.70;;;5.00;;
55800;SDS011;41730;51.960;20.158;2023-05-20T08:05:42;9.80;;;4.30;;
55800;SDS011;41730;51.960;20.158;2023-05-20T08:08:12;6.10;;;4.60;;
55800;SDS011;41730;51.960;20.158;2023-05-20T08:10:42;8.30;;;5.20;;
55800;SDS011;41730;51.960;20.158;2023-05-20T08:13:10;7.70;;;4.10;;
55800;SDS011;41730;51.960;20.158;2023-05-20T08:15:39;7.30;;;5.20;;
55800;SDS011;41730;51.960;20.158;2023-05-20T08:18:10;9.50;;;5.10;;
55800;SDS011;41730;51.960;20.158;2023-05-20T08:20:39;10.60;;;5.00;;
55800;SDS011;41730;51.960;20.158;2023-05-20T08:23:08;7.50;;;5.00;;
55800;SDS011;41730;51.960;20.158;2023-05-20T08:25:37;11.60;;;5.60;;
55800;SDS011;41730;51.960;20.158;2023-05-20T08:28:06;8.10;;;5.40;;
55800;SDS011;41730;51.960;20.158;2023-05-20T08:30:35;9.80;;;6.00;;
55800;SDS011;41730;51.960;20.158;2023-05-20T08:33:05;10.50;;;5.90;;
55800;SDS011;41730;51.960;20.158;2023-05-20T08:35:34;9.00;;;5.60;;
55800;SDS011;41730;51.960;20.158;2023-05-20T08:38:05;10.10;;;6.50;;
55800;SDS011;41730;51.960;20.158;2023-05-20T08:40:36;9.10;;;5.50;;
55800;SDS011;41730;51.960;20.158;2023-05-20T08:43:05;9.20;;;5.70;;
55800;SDS011;41730;51.960;20.158;2023-05-20T08:45:36;8.20;;;6.10;;
55800;SDS011;41730;51.960;20.158;2023-05-20T08:48:06;10.20;;;6.30;;
55800;SDS011;41730;51.960;20.158;2023-05-20T08:50:35;7.40;;;5.50;;
55800;SDS011;41730;51.960;20.158;2023-05-20T08:53:05;9.40;;;5.50;;
55800;SDS011;41730;51.960;20.158;2023-05-20T08:55:36;9.10;;;5.30;;
55800;SDS011;41730;51.960;20.158;2023-05-20T08:58:09;7.20;;;4.90;;
55800;SDS011;41730;51.960;20.158;2023-05-20T09:00:38;8.90;;;5.30;;
55800;SDS011;41730;51.960;20.158;2023-05-20T09:03:08;8.60;;;5.10;;
55800;SDS011;41730;51.960;20.158;2023-05-20T09:05:38;7.10;;;4.60;;
55800;SDS011;41730;51.960;20.158;2023-05-20T09:08:07;8.40;;;4.80;;
55800;SDS011;41730;51.960;20.158;2023-05-20T09:10:38;8.40;;;5.40;;
55800;SDS011;41730;51.960;20.158;2023-05-20T09:13:08;8.30;;;5.00;;
55800;SDS011;41730;51.960;20.158;2023-05-20T09:15:38;8.20;;;4.80;;
55800;SDS011;41730;51.960;20.158;2023-05-20T09:18:07;10.10;;;4.90;;
55800;SDS011;41730;51.960;20.158;2023-05-20T09:20:38;8.80;;;5.00;;
55800;SDS011;41730;51.960;20.158;2023-05-20T09:23:08;9.70;;;5.30;;
55800;SDS011;41730;51.960;20.158;2023-05-20T09:25:38;8.90;;;5.70;;
55800;SDS011;41730;51.960;20.158;2023-05-20T09:28:08;11.60;;;5.60;;
55800;SDS011;41730;51.960;20.158;2023-05-20T09:30:38;7.10;;;4.90;;
55800;SDS011;41730;51.960;20.158;2023-05-20T09:33:10;7.70;;;5.20;;
55800;SDS011;41730;51.960;20.158;2023-05-20T09:35:40;7.50;;;5.50;;
55800;SDS011;41730;51.960;20.158;2023-05-20T09:38:10;6.10;;;4.90;;
55800;SDS011;41730;51.960;20.158;2023-05-20T09:40:40;7.60;;;5.30;;
55800;SDS011;41730;51.960;20.158;2023-05-20T09:43:12;8.70;;;5.20;;
55800;SDS011;41730;51.960;20.158;2023-05-20T09:45:42;10.00;;;5.50;;
55800;SDS011;41730;51.960;20.158;2023-05-20T09:48:11;7.10;;;4.70;;
55800;SDS011;41730;51.960;20.158;2023-05-20T09:50:41;9.30;;;5.90;;
55800;SDS011;41730;51.960;20.158;2023-05-20T09:53:11;9.90;;;5.80;;
55800;SDS011;41730;51.960;20.158;2023-05-20T09:55:41;8.00;;;5.40;;
55800;SDS011;41730;51.960;20.158;2023-05-20T09:58:12;11.00;;;5.80;;
55800;SDS011;41730;51.960;20.158;2023-05-20T10:00:43;15.80;;;5.90;;
55800;SDS011;41730;51.960;20.158;2023-05-20T10:03:12;9.50;;;5.40;;
55800;SDS011;41730;51.960;20.158;2023-05-20T10:05:44;9.80;;;5.60;;
55800;SDS011;41730;51.960;20.158;2023-05-20T10:08:23;8.60;;;6.50;;
55800;SDS011;41730;51.960;20.158;2023-05-20T10:11:06;9.80;;;6.30;;
55800;SDS011;41730;51.960;20.158;2023-05-20T10:13:47;9.90;;;6.10;;
55800;SDS011;41730;51.960;20.158;2023-05-20T10:16:24;8.70;;;6.50;;
55800;SDS011;41730;51.960;20.158;2023-05-20T10:19:03;11.80;;;7.90;;
55800;SDS011;41730;51.960;20.158;2023-05-20T10:21:38;10.00;;;7.40;;
55800;SDS011;41730;51.960;20.158;2023-05-20T10:24:08;9.90;;;7.00;;
55800;SDS011;41730;51.960;20.158;2023-05-20T10:26:39;10.50;;;6.70;;
55800;SDS011;41730;51.960;20.158;2023-05-20T10:29:15;11.40;;;7.10;;
55800;SDS011;41730;51.960;20.158;2023-05-20T10:31:47;15.10;;;7.10;;
55800;SDS011;41730;51.960;20.158;2023-05-20T10:34:17;9.70;;;7.40;;
55800;SDS011;41730;51.960;20.158;2023-05-20T10:36:56;10.10;;;6.40;;
55800;SDS011;41730;51.960;20.158;2023-05-20T10:39:27;9.60;;;7.10;;
55800;SDS011;41730;51.960;20.158;2023-05-20T10:42:06;10.50;;;6.80;;
55800;SDS011;41730;51.960;20.158;2023-05-20T10:44:43;9.00;;;6.80;;
55800;SDS011;41730;51.960;20.158;2023-05-20T10:47:14;10.10;;;6.60;;
55800;SDS011;41730;51.960;20.158;2023-05-20T10:49:52;10.60;;;7.10;;
55800;SDS011;41730;51.960;20.158;2023-05-20T10:52:21;11.10;;;6.70;;
55800;SDS011;41730;51.960;20.158;2023-05-20T10:54:54;8.80;;;6.50;;
55800;SDS011;41730;51.960;20.158;2023-05-20T10:57:25;7.50;;;6.30;;
55800;SDS011;41730;51.960;20.158;2023-05-20T10:59:56;8.70;;;6.50;;
55800;SDS011;41730;51.960;20.158;2023-05-20T11:02:27;8.40;;;6.40;;
55800;SDS011;41730;51.960;20.158;2023-05-20T11:04:59;7.40;;;6.40;;
55800;SDS011;41730;51.960;20.158;2023-05-20T11:07:30;9.80;;;6.70;;
55800;SDS011;41730;51.960;20.158;2023-05-20T11:10:00;9.40;;;6.40;;
55800;SDS011;41730;51.960;20.158;2023-05-20T11:12:31;12.30;;;7.10;;
55800;SDS011;41730;51.960;20.158;2023-05-20T11:15:00;8.90;;;6.00;;
55800;SDS011;41730;51.960;20.158;2023-05-20T11:17:30;9.10;;;6.90;;
55800;SDS011;41730;51.960;20.158;2023-05-20T11:19:59;10.10;;;7.10;;
55800;SDS011;41730;51.960;20.158;2023-05-20T11:22:28;10.80;;;7.00;;
55800;SDS011;41730;51.960;20.158;2023-05-20T11:24:57;9.00;;;6.80;;
55800;SDS011;41730;51.960;20.158;2023-05-20T11:27:27;10.70;;;7.90;;
55800;SDS011;41730;51.960;20.158;2023-05-20T11:29:57;12.20;;;7.60;;
55800;SDS011;41730;51.960;20.158;2023-05-20T11:32:26;11.90;;;8.30;;
55800;SDS011;41730;51.960;20.158;2023-05-20T11:34:56;11.70;;;8.20;;
55800;SDS011;41730;51.960;20.158;2023-05-20T11:37:26;10.50;;;8.00;;
55800;SDS011;41730;51.960;20.158;2023-05-20T11:40:05;10.10;;;7.70;;
55800;SDS011;41730;51.960;20.158;2023-05-20T11:42:36;9.10;;;7.70;;
55800;SDS011;41730;51.960;20.158;2023-05-20T11:45:06;10.60;;;8.00;;
55800;SDS011;41730;51.960;20.158;2023-05-20T11:47:39;11.90;;;7.90;;
55800;SDS011;41730;51.960;20.158;2023-05-20T11:50:10;9.70;;;8.00;;
55800;SDS011;41730;51.960;20.158;2023-05-20T11:52:45;11.20;;;8.10;;
55800;SDS011;41730;51.960;20.158;2023-05-20T11:55:23;10.50;;;8.00;;
55800;SDS011;41730;51.960;20.158;2023-05-20T11:57:53;11.80;;;7.40;;
55800;SDS011;41730;51.960;20.158;2023-05-20T12:00:23;13.70;;;8.40;;
55800;SDS011;41730;51.960;20.158;2023-05-20T12:02:55;11.50;;;8.90;;
55800;SDS011;41730;51.960;20.158;2023-05-20T12:05:24;11.60;;;8.20;;
55800;SDS011;41730;51.960;20.158;2023-05-20T12:07:54;10.30;;;8.70;;
55800;SDS011;41730;51.960;20.158;2023-05-20T12:10:23;10.00;;;8.00;;
55800;SDS011;41730;51.960;20.158;2023-05-20T12:12:52;9.90;;;7.60;;
55800;SDS011;41730;51.960;20.158;2023-05-20T12:15:21;9.50;;;8.00;;
55800;SDS011;41730;51.960;20.158;2023-05-20T12:17:50;10.20;;;8.40;;
55800;SDS011;41730;51.960;20.158;2023-05-20T12:20:21;10.10;;;7.70;;
55800;SDS011;41730;51.960;20.158;2023-05-20T12:22:51;12.20;;;8.30;;
55800;SDS011;41730;51.960;20.158;2023-05-20T12:25:20;10.80;;;8.60;;
55800;SDS011;41730;51.960;20.158;2023-05-20T12:27:49;9.50;;;8.30;;
55800;SDS011;41730;51.960;20.158;2023-05-20T12:30:19;9.50;;;8.30;;
55800;SDS011;41730;51.960;20.158;2023-05-20T12:32:49;11.00;;;8.20;;
55800;SDS011;41730;51.960;20.158;2023-05-20T12:35:23;11.50;;;8.20;;
55800;SDS011;41730;51.960;20.158;2023-05-20T12:38:02;11.40;;;7.90;;
55800;SDS011;41730;51.960;20.158;2023-05-20T12:40:32;9.80;;;7.50;;
55800;SDS011;41730;51.960;20.158;2023-05-20T12:43:02;12.20;;;7.80;;
55800;SDS011;41730;51.960;20.158;2023-05-20T12:45:31;9.20;;;8.30;;
55800;SDS011;41730;51.960;20.158;2023-05-20T12:48:00;9.40;;;7.70;;
55800;SDS011;41730;51.960;20.158;2023-05-20T12:50:32;8.30;;;7.30;;
55800;SDS011;41730;51.960;20.158;2023-05-20T12:53:02;10.90;;;7.50;;
55800;SDS011;41730;51.960;20.158;2023-05-20T12:55:31;8.50;;;7.60;;
55800;SDS011;41730;51.960;20.158;2023-05-20T12:58:00;7.90;;;6.80;;
55800;SDS011;41730;51.960;20.158;2023-05-20T13:00:29;13.30;;;7.80;;
55800;SDS011;41730;51.960;20.158;2023-05-20T13:02:59;9.30;;;6.90;;
55800;SDS011;41730;51.960;20.158;2023-05-20T13:05:28;11.10;;;7.40;;
55800;SDS011;41730;51.960;20.158;2023-05-20T13:07:57;8.60;;;7.30;;
55800;SDS011;41730;51.960;20.158;2023-05-20T13:10:26;8.90;;;7.60;;
55800;SDS011;41730;51.960;20.158;2023-05-20T13:12:55;9.60;;;6.80;;
55800;SDS011;41730;51.960;20.158;2023-05-20T13:15:25;12.50;;;7.40;;
55800;SDS011;41730;51.960;20.158;2023-05-20T13:17:54;12.10;;;7.80;;
55800;SDS011;41730;51.960;20.158;2023-05-20T13:20:24;12.00;;;7.70;;
55800;SDS011;41730;51.960;20.158;2023-05-20T13:22:54;10.80;;;7.30;;
55800;SDS011;41730;51.960;20.158;2023-05-20T13:25:24;16.00;;;12.90;;
55800;SDS011;41730;51.960;20.158;2023-05-20T13:27:55;11.00;;;7.70;;
55800;SDS011;41730;51.960;20.158;2023-05-20T13:30:24;11.00;;;8.00;;
55800;SDS011;41730;51.960;20.158;2023-05-20T13:32:54;9.70;;;7.00;;
55800;SDS011;41730;51.960;20.158;2023-05-20T13:35:23;8.50;;;7.10;;
55800;SDS011;41730;51.960;20.158;2023-05-20T13:37:52;9.20;;;7.00;;
55800;SDS011;41730;51.960;20.158;2023-05-20T13:40:21;9.60;;;7.10;;
55800;SDS011;41730;51.960;20.158;2023-05-20T13:42:50;10.00;;;6.80;;
55800;SDS011;41730;51.960;20.158;2023-05-20T13:45:20;8.10;;;7.00;;
55800;SDS011;41730;51.960;20.158;2023-05-20T13:47:49;9.00;;;7.70;;
55800;SDS011;41730;51.960;20.158;2023-05-20T13:50:19;10.10;;;7.10;;
55800;SDS011;41730;51.960;20.158;2023-05-20T13:52:49;7.80;;;6.70;;
55800;SDS011;41730;51.960;20.158;2023-05-20T13:55:19;11.70;;;7.50;;
55800;SDS011;41730;51.960;20.158;2023-05-20T13:57:51;8.70;;;6.90;;
55800;SDS011;41730;51.960;20.158;2023-05-20T14:00:21;8.80;;;7.20;;
55800;SDS011;41730;51.960;20.158;2023-05-20T14:02:51;9.00;;;6.40;;
55800;SDS011;41730;51.960;20.158;2023-05-20T14:05:22;9.70;;;7.10;;
55800;SDS011;41730;51.960;20.158;2023-05-20T14:07:52;7.50;;;6.70;;
55800;SDS011;41730;51.960;20.158;2023-05-20T14:10:21;10.10;;;7.40;;
55800;SDS011;41730;51.960;20.158;2023-05-20T14:12:50;10.40;;;7.00;;
55800;SDS011;41730;51.960;20.158;2023-05-20T14:15:20;7.80;;;6.80;;
55800;SDS011;41730;51.960;20.158;2023-05-20T14:17:49;10.20;;;6.70;;
55800;SDS011;41730;51.960;20.158;2023-05-20T14:20:19;8.00;;;7.10;;
55800;SDS011;41730;51.960;20.158;2023-05-20T14:22:48;7.90;;;6.60;;
55800;SDS011;41730;51.960;20.158;2023-05-20T14:25:18;10.10;;;6.80;;
55800;SDS011;41730;51.960;20.158;2023-05-20T14:27:48;9.20;;;7.00;;
55800;SDS011;41730;51.960;20.158;2023-05-20T14:30:17;8.20;;;6.40;;
55800;SDS011;41730;51.960;20.158;2023-05-20T14:32:46;14.00;;;7.10;;
55800;SDS011;41730;51.960;20.158;2023-05-20T14:35:15;10.00;;;6.90;;
55800;SDS011;41730;51.960;20.158;2023-05-20T14:37:46;8.70;;;6.80;;